createdAt,value
2018-07-16T00:00:25.963Z,20.60
2018-07-16T00:03:59.288Z,20.60
2018-07-16T00:07:32.521Z,20.60
2018-07-16T00:11:05.752Z,20.50
2018-07-16T00:14:39.072Z,20.50
2018-07-16T00:18:12.334Z,20.40
2018-07-16T00:21:45.588Z,20.40
2018-07-16T00:25:18.820Z,20.40
2018-07-16T00:28:52.044Z,20.30
2018-07-16T00:32:25.251Z,20.30
2018-07-16T00:35:58.505Z,20.30
2018-07-16T00:39:31.727Z,20.30
2018-07-16T00:43:04.988Z,20.30
2018-07-16T00:50:11.266Z,20.40
2018-07-16T00:53:44.508Z,20.40
2018-07-16T00:57:17.744Z,20.40
2018-07-16T01:00:51.019Z,20.40
2018-07-16T01:04:24.281Z,20.40
2018-07-16T01:11:30.517Z,20.50
2018-07-16T01:15:03.812Z,20.40
2018-07-16T01:18:37.096Z,20.30
2018-07-16T01:22:10.345Z,20.20
2018-07-16T01:25:43.596Z,20.20
2018-07-16T01:29:16.842Z,20.10
2018-07-16T01:32:50.082Z,20.10
2018-07-16T01:43:29.331Z,20.00
2018-07-16T01:47:02.576Z,20.00
2018-07-16T01:50:35.838Z,20.00
2018-07-16T01:54:09.091Z,20.00
2018-07-16T01:57:42.329Z,20.00
2018-07-16T02:01:15.592Z,20.10
2018-07-16T02:04:48.833Z,20.10
2018-07-16T02:08:23.021Z,20.00
2018-07-16T02:11:56.273Z,20.00
2018-07-16T02:15:29.525Z,19.90
2018-07-16T02:19:02.800Z,19.90
2018-07-16T02:22:36.521Z,19.90
2018-07-16T02:26:09.752Z,20.00
2018-07-16T02:29:43.008Z,20.00
2018-07-16T02:33:16.278Z,20.10
2018-07-16T02:36:49.518Z,20.20
2018-07-16T02:40:22.833Z,20.20
2018-07-16T02:43:56.069Z,20.20
2018-07-16T02:47:29.330Z,20.20
2018-07-16T02:51:02.560Z,20.20
2018-07-16T02:54:35.809Z,20.10
2018-07-16T02:58:09.041Z,20.10
2018-07-16T03:01:42.272Z,20.00
2018-07-16T03:05:18.881Z,19.90
2018-07-16T03:08:52.153Z,19.80
2018-07-16T03:12:25.390Z,19.90
2018-07-16T03:15:58.645Z,19.90
2018-07-16T03:19:31.965Z,19.90
2018-07-16T03:23:05.381Z,19.90
2018-07-16T03:30:11.601Z,19.70
2018-07-16T03:33:44.908Z,19.50
2018-07-16T03:37:18.150Z,19.50
2018-07-16T03:40:51.410Z,19.50
2018-07-16T03:44:24.650Z,19.50
2018-07-16T03:47:57.908Z,19.50
2018-07-16T03:51:31.159Z,19.50
2018-07-16T03:55:04.402Z,19.50
2018-07-16T03:58:37.650Z,19.50
2018-07-16T04:02:10.990Z,19.40
2018-07-16T04:05:44.238Z,19.50
2018-07-16T04:09:17.469Z,19.60
2018-07-16T04:12:50.708Z,19.70
2018-07-16T04:16:23.970Z,19.80
2018-07-16T04:19:57.213Z,19.90
2018-07-16T04:23:30.469Z,19.90
2018-07-16T04:30:36.718Z,19.80
2018-07-16T04:34:09.953Z,19.80
2018-07-16T04:37:43.245Z,19.80
2018-07-16T04:41:16.498Z,19.80
2018-07-16T04:44:49.764Z,19.70
2018-07-16T04:55:29.036Z,19.70
2018-07-16T04:59:02.295Z,19.70
2018-07-16T05:02:35.794Z,19.80
2018-07-16T05:06:09.051Z,19.90
2018-07-16T05:09:42.521Z,20.00
2018-07-16T05:13:15.764Z,20.00
2018-07-16T05:16:49.132Z,20.00
2018-07-16T05:20:22.408Z,20.10
2018-07-16T05:23:55.738Z,20.00
2018-07-16T05:27:28.971Z,20.00
2018-07-16T05:34:35.260Z,20.10
2018-07-16T05:38:08.586Z,20.10
2018-07-16T05:41:41.812Z,20.10
2018-07-16T05:45:15.073Z,20.10
2018-07-16T05:48:48.321Z,20.00
2018-07-16T05:52:21.599Z,20.00
2018-07-16T05:55:54.829Z,20.00
2018-07-16T05:59:28.085Z,20.00
2018-07-16T06:03:01.356Z,19.90
2018-07-16T06:06:35.972Z,19.90
2018-07-16T06:10:09.230Z,19.90
2018-07-16T06:13:42.468Z,20.00
2018-07-16T06:17:15.732Z,20.00
2018-07-16T06:20:49.061Z,20.10
2018-07-16T06:24:22.280Z,20.10
2018-07-16T06:27:55.509Z,20.10
2018-07-16T06:31:28.753Z,20.30
2018-07-16T06:35:02.004Z,20.50
2018-07-16T06:42:08.387Z,20.80
2018-07-16T06:45:41.669Z,20.90
2018-07-16T06:49:14.946Z,20.90
2018-07-16T06:52:48.232Z,21.00
2018-07-16T06:56:21.497Z,21.20
2018-07-16T07:03:27.897Z,21.20
2018-07-16T07:10:34.165Z,21.50
2018-07-16T07:14:07.439Z,21.70
2018-07-16T07:17:40.700Z,21.80
2018-07-16T07:21:13.956Z,22.00
2018-07-16T07:24:47.208Z,22.10
2018-07-16T07:28:20.466Z,22.20
2018-07-16T07:31:53.706Z,22.20
2018-07-16T07:35:27.189Z,22.30
2018-07-16T07:39:00.400Z,22.30
2018-07-16T07:42:33.647Z,22.30
2018-07-16T07:46:06.963Z,22.40
2018-07-16T07:49:40.218Z,22.40
2018-07-16T07:53:13.476Z,22.40
2018-07-16T07:56:46.828Z,22.50
2018-07-16T08:00:20.082Z,22.50
2018-07-16T08:03:53.313Z,22.50
2018-07-16T08:07:26.561Z,22.50
2018-07-16T08:10:59.824Z,22.50
2018-07-16T08:14:33.100Z,22.40
2018-07-16T08:18:06.381Z,22.30
2018-07-16T08:21:39.684Z,22.30
2018-07-16T08:25:12.957Z,22.30
2018-07-16T08:28:46.201Z,22.30
2018-07-16T08:32:19.465Z,22.30
2018-07-16T08:35:52.733Z,22.40
2018-07-16T08:39:26.002Z,22.50
2018-07-16T08:42:59.271Z,22.50
2018-07-16T08:46:32.735Z,22.70
2018-07-16T08:50:06.040Z,22.80
2018-07-16T08:53:39.313Z,23.00
2018-07-16T08:57:12.563Z,23.20
2018-07-16T09:00:45.815Z,23.40
2018-07-16T09:11:25.072Z,24.50
2018-07-16T09:14:58.315Z,24.60
2018-07-16T09:18:31.579Z,24.60
2018-07-16T09:22:04.841Z,24.50
2018-07-16T09:25:38.194Z,24.60
2018-07-16T09:29:11.365Z,24.80
2018-07-16T09:32:44.654Z,24.80
2018-07-16T09:36:17.878Z,24.80
2018-07-16T09:39:51.116Z,24.80
2018-07-16T09:43:24.368Z,24.80
2018-07-16T09:46:57.752Z,24.80
2018-07-16T09:50:30.981Z,24.80
2018-07-16T09:54:04.271Z,24.80
2018-07-16T09:57:37.528Z,25.00
2018-07-16T10:01:16.213Z,25.10
2018-07-16T10:04:49.477Z,25.20
2018-07-16T10:08:22.824Z,25.30
2018-07-16T10:11:56.009Z,25.40
2018-07-16T10:15:29.252Z,25.50
2018-07-16T10:19:02.855Z,25.50
2018-07-16T10:22:36.119Z,25.40
2018-07-16T10:26:09.447Z,25.40
2018-07-16T10:29:42.711Z,25.30
2018-07-16T10:33:15.962Z,25.50
2018-07-16T10:36:49.217Z,25.80
2018-07-16T10:40:22.479Z,26.00
2018-07-16T10:43:55.752Z,26.10
2018-07-16T10:47:29.020Z,26.10
2018-07-16T10:51:02.407Z,26.10
2018-07-16T10:54:35.632Z,26.20
2018-07-16T10:58:08.905Z,26.30
2018-07-16T11:01:42.143Z,26.30
2018-07-16T11:15:54.380Z,26.30
2018-07-16T11:19:27.665Z,26.20
2018-07-16T11:23:00.936Z,26.10
2018-07-16T11:26:34.182Z,26.00
2018-07-16T11:30:08.056Z,26.00
2018-07-16T11:33:41.285Z,25.90
2018-07-16T11:37:14.573Z,25.80
2018-07-16T11:40:47.888Z,25.70
2018-07-16T11:44:21.120Z,25.60
2018-07-16T11:47:54.364Z,25.50
2018-07-16T11:51:27.592Z,25.50
2018-07-16T11:55:00.845Z,25.50
2018-07-16T11:58:34.174Z,25.50
2018-07-16T12:02:07.464Z,25.50
2018-07-16T12:05:40.688Z,25.50
2018-07-16T12:09:13.929Z,25.60
2018-07-16T12:12:47.229Z,25.60
2018-07-16T12:16:20.457Z,25.60
2018-07-16T12:19:53.726Z,25.70
2018-07-16T12:23:26.967Z,25.80
2018-07-16T12:27:00.232Z,25.80
2018-07-16T12:30:33.481Z,25.90
2018-07-16T12:34:06.740Z,26.00
2018-07-16T12:41:12.993Z,26.10
2018-07-16T12:44:46.252Z,26.00
2018-07-16T12:48:19.497Z,26.00
2018-07-16T12:51:52.769Z,26.00
2018-07-16T12:55:26.051Z,25.90
2018-07-16T12:58:59.320Z,25.90
2018-07-16T13:02:32.559Z,26.00
2018-07-16T13:06:05.984Z,26.10
2018-07-16T13:09:39.281Z,26.10
2018-07-16T13:13:12.521Z,26.20
2018-07-16T13:16:45.764Z,26.30
2018-07-16T13:20:19.032Z,26.40
2018-07-16T13:23:52.280Z,26.50
2018-07-16T13:27:25.526Z,26.60
2018-07-16T13:30:58.920Z,26.70
2018-07-16T13:34:32.180Z,26.80
2018-07-16T13:38:05.597Z,27.00
2018-07-16T13:41:38.857Z,27.10
2018-07-16T13:45:12.121Z,27.20
2018-07-16T13:48:45.367Z,27.50
2018-07-16T13:52:18.612Z,27.70
2018-07-16T13:55:51.873Z,28.00
2018-07-16T13:59:25.102Z,28.20
2018-07-16T14:02:58.330Z,28.30
2018-07-16T14:06:31.564Z,28.40
2018-07-16T14:10:04.849Z,28.60
2018-07-16T14:13:38.093Z,28.70
2018-07-16T14:17:11.755Z,28.80
2018-07-16T14:20:45.011Z,29.10
2018-07-16T14:24:18.269Z,29.30
2018-07-16T14:27:51.696Z,29.50
2018-07-16T14:31:24.936Z,29.70
2018-07-16T14:34:58.185Z,30.10
2018-07-16T14:38:31.425Z,30.40
2018-07-16T14:42:04.676Z,30.60
2018-07-16T14:45:37.929Z,30.60
2018-07-16T14:49:11.198Z,30.60
2018-07-16T14:52:44.533Z,30.70
2018-07-16T14:56:17.792Z,30.80
2018-07-16T14:59:51.066Z,30.90
2018-07-16T15:03:24.322Z,31.10
2018-07-16T15:06:57.889Z,31.40
2018-07-16T15:10:31.184Z,31.80
2018-07-16T15:14:04.469Z,32.10
2018-07-16T15:17:37.733Z,32.30
2018-07-16T15:21:11.217Z,32.40
2018-07-16T15:24:44.293Z,32.50
2018-07-16T15:28:17.569Z,32.70
2018-07-16T15:35:23.837Z,33.00
2018-07-16T15:38:57.131Z,32.60
2018-07-16T15:42:30.421Z,32.00
2018-07-16T15:46:03.666Z,31.40
2018-07-16T15:53:09.975Z,30.50
2018-07-16T15:56:43.226Z,30.50
2018-07-16T16:00:16.464Z,30.90
2018-07-16T16:03:49.730Z,31.10
2018-07-16T16:07:23.007Z,30.80
2018-07-16T16:10:56.233Z,30.40
2018-07-16T16:14:29.520Z,30.50
2018-07-16T16:18:03.509Z,30.50
2018-07-16T16:21:36.823Z,30.50
2018-07-16T16:25:10.049Z,30.30
2018-07-16T16:28:43.301Z,30.00
2018-07-16T16:32:16.567Z,29.90
2018-07-16T16:35:50.926Z,29.70
2018-07-16T16:39:24.192Z,29.40
2018-07-16T16:42:57.562Z,29.10
2018-07-16T16:46:30.764Z,28.70
2018-07-16T16:50:04.550Z,28.30
2018-07-16T16:53:37.793Z,28.00
2018-07-16T16:57:11.075Z,27.70
2018-07-16T17:00:44.345Z,27.60
2018-07-16T17:04:17.744Z,27.50
2018-07-16T17:07:51.014Z,27.40
2018-07-16T17:14:57.445Z,27.10
2018-07-16T17:18:30.816Z,27.00
2018-07-16T17:22:04.020Z,26.90
2018-07-16T17:25:40.349Z,26.90
2018-07-16T17:29:13.609Z,26.80
2018-07-16T17:32:47.416Z,26.70
2018-07-16T17:36:21.040Z,26.60
2018-07-16T17:39:54.331Z,26.50
2018-07-16T17:43:27.572Z,26.40
2018-07-16T17:47:00.905Z,26.30
2018-07-16T17:50:34.188Z,26.30
2018-07-16T17:54:07.450Z,26.20
2018-07-16T17:57:40.765Z,26.10
2018-07-16T18:01:14.098Z,26.10
2018-07-16T18:04:47.285Z,26.00
2018-07-16T18:08:20.548Z,25.90
2018-07-16T18:11:53.908Z,25.90
2018-07-16T18:15:27.165Z,25.80
2018-07-16T18:19:00.876Z,25.80
2018-07-16T18:22:34.128Z,25.80
2018-07-16T18:29:40.425Z,25.70
2018-07-16T18:33:13.672Z,25.60
2018-07-16T18:36:46.938Z,25.50
2018-07-16T18:40:20.756Z,25.50
2018-07-16T18:43:54.873Z,25.40
2018-07-16T18:47:28.149Z,25.30
2018-07-16T18:51:02.247Z,25.20
2018-07-16T18:54:35.540Z,25.20
2018-07-16T18:58:08.788Z,25.10
2018-07-16T19:05:16.714Z,24.90
2018-07-16T19:08:50.071Z,24.90
2018-07-16T19:12:23.348Z,24.80
2018-07-16T19:15:56.592Z,24.70
2018-07-16T19:19:29.990Z,24.60
2018-07-16T19:23:03.340Z,24.60
2018-07-16T19:26:36.608Z,24.50
2018-07-16T19:30:09.935Z,24.50
2018-07-16T19:33:43.172Z,24.40
2018-07-16T19:37:16.481Z,24.30
2018-07-16T19:40:49.779Z,24.30
2018-07-16T19:44:23.148Z,24.10
2018-07-16T19:47:56.395Z,24.10
2018-07-16T19:51:29.676Z,24.00
2018-07-16T19:55:02.951Z,24.00
2018-07-16T19:58:36.575Z,23.90
2018-07-16T20:02:10.025Z,23.90
2018-07-16T20:05:43.320Z,23.80
2018-07-16T20:09:18.399Z,23.80
2018-07-16T20:12:51.620Z,23.70
2018-07-16T20:16:34.909Z,23.70
2018-07-16T20:20:08.568Z,23.70
2018-07-16T20:23:41.795Z,23.70
2018-07-16T20:27:15.041Z,23.60
2018-07-16T20:30:48.464Z,23.60
2018-07-16T20:34:21.723Z,23.50
2018-07-16T20:37:54.990Z,23.40
2018-07-16T20:41:28.355Z,23.40
2018-07-16T20:45:02.020Z,23.30
2018-07-16T20:48:35.552Z,23.20
2018-07-16T20:55:42.685Z,23.10
2018-07-16T20:59:15.941Z,23.00
2018-07-16T21:02:49.414Z,22.90
2018-07-16T21:06:22.707Z,22.80
2018-07-16T21:09:56.055Z,22.60
2018-07-16T21:13:29.777Z,22.60
2018-07-16T21:17:03.021Z,22.50
2018-07-16T21:20:36.293Z,22.50
2018-07-16T21:24:09.546Z,22.50
2018-07-16T21:31:16.390Z,22.40
2018-07-16T21:34:49.664Z,22.40
2018-07-16T21:38:22.897Z,22.40
2018-07-16T21:41:56.146Z,22.30
2018-07-16T21:45:29.402Z,22.20
2018-07-16T21:49:02.665Z,22.20
2018-07-16T21:52:35.973Z,22.20
2018-07-16T21:56:09.212Z,22.10
2018-07-16T21:59:42.460Z,22.10
2018-07-16T22:03:15.720Z,22.00
2018-07-16T22:06:48.968Z,21.90
2018-07-16T22:10:22.629Z,21.90
2018-07-16T22:13:55.869Z,21.80
2018-07-16T22:17:29.117Z,21.70
2018-07-16T22:21:02.349Z,21.70
2018-07-16T22:24:35.587Z,21.60
2018-07-16T22:28:08.821Z,21.50
2018-07-16T22:31:42.076Z,21.50
2018-07-16T22:35:15.353Z,21.50
2018-07-16T22:38:48.605Z,21.50
2018-07-16T22:42:21.867Z,21.50
2018-07-16T22:45:55.118Z,21.40
2018-07-16T22:49:28.404Z,21.40
2018-07-16T22:53:01.653Z,21.40
2018-07-16T22:56:34.896Z,21.30
2018-07-16T23:00:08.150Z,21.30
2018-07-16T23:03:41.418Z,21.30
2018-07-16T23:07:14.674Z,21.20
2018-07-16T23:10:48.354Z,21.20
2018-07-16T23:14:21.888Z,21.10
2018-07-16T23:17:55.145Z,21.00
2018-07-16T23:21:28.393Z,20.90
2018-07-16T23:25:01.653Z,20.80
2018-07-16T23:28:34.917Z,20.70
2018-07-16T23:32:08.152Z,20.70
2018-07-16T23:35:41.386Z,20.60
2018-07-16T23:39:14.650Z,20.50
2018-07-16T23:42:47.893Z,20.50
2018-07-16T23:46:21.171Z,20.50
2018-07-16T23:49:54.408Z,20.40
2018-07-16T23:53:27.663Z,20.40
2018-07-16T23:57:00.927Z,20.40
